Time;durP1;ratioP1;P1;durP2;ratioP2;P2;SDS_P1;SDS_P2;PMS_P1;PMS_P2;Temp;Humidity;BMP_temperature;BMP_pressure;BME280_temperature;BME280_humidity;BME280_pressure;Samples;Min_cycle;Max_cycle;Signal;HPM_P1;HPM_P2
2023/10/04 00:04:23;;;;;;;9.10;2.37;;;;;12.60;102099.00;;;;10474644;28;20293;-78
2023/10/04 00:09:26;;;;;;;12.00;2.43;;;;;12.50;102091.00;;;;10470971;28;20316;-78
2023/10/04 00:14:28;;;;;;;9.70;2.40;;;;;12.50;102089.00;;;;10470855;28;20198;-78
2023/10/04 00:19:32;;;;;;;11.67;2.90;;;;;12.50;102096.00;;;;10477593;28;20206;-78
2023/10/04 00:24:34;;;;;;;9.57;2.93;;;;;12.40;102109.00;;;;10451880;28;20258;-80
2023/10/04 00:29:36;;;;;;;11.90;2.33;;;;;12.40;102104.00;;;;10497004;28;20931;-80
2023/10/04 00:34:39;;;;;;;12.27;2.57;;;;;12.40;102103.00;;;;10492859;28;20848;-79
2023/10/04 00:39:41;;;;;;;15.53;2.70;;;;;12.30;102107.00;;;;10456610;28;20225;-79
2023/10/04 00:44:43;;;;;;;8.93;2.07;;;;;12.30;102108.00;;;;10458117;28;20198;-79
2023/10/04 00:49:45;;;;;;;9.30;2.70;;;;;12.30;102117.00;;;;10464501;28;20255;-78
2023/10/04 00:54:49;;;;;;;10.83;2.73;;;;;12.20;102121.00;;;;10475262;28;20209;-80
2023/10/04 00:59:52;;;;;;;12.90;2.77;;;;;12.20;102119.00;;;;10457050;28;20201;-79
2023/10/04 01:04:54;;;;;;;11.40;2.33;;;;;12.30;102121.00;;;;10454622;28;20689;-77
2023/10/04 01:09:56;;;;;;;8.23;2.30;;;;;12.30;102137.00;;;;10462367;28;20919;-75
2023/10/04 01:15:12;;;;;;;14.30;2.67;;;;;12.40;102126.00;;;;10486175;28;20217;-74
2023/10/04 01:20:14;;;;;;;8.67;2.73;;;;;12.50;102134.00;;;;10484831;28;20215;-74
2023/10/04 01:25:16;;;;;;;8.27;2.20;;;;;12.50;102130.00;;;;10473667;28;20216;-76
2023/10/04 01:30:18;;;;;;;10.27;2.50;;;;;12.50;102128.00;;;;10485382;28;20202;-74
2023/10/04 01:35:24;;;;;;;9.43;2.80;;;;;12.50;102139.00;;;;10448834;28;20267;-75
2023/10/04 01:40:28;;;;;;;7.97;2.40;;;;;12.50;102133.00;;;;10451355;28;20280;-75
2023/10/04 01:45:30;;;;;;;12.43;2.70;;;;;12.50;102139.00;;;;10474135;28;20288;-76
2023/10/04 01:50:32;;;;;;;11.17;3.03;;;;;12.50;102129.00;;;;10464953;28;20205;-74
2023/10/04 01:55:34;;;;;;;7.70;2.10;;;;;12.40;102131.00;;;;10477602;28;20221;-76
2023/10/04 02:00:36;;;;;;;7.50;2.67;;;;;12.40;102128.00;;;;10455826;28;20220;-76
2023/10/04 02:05:40;;;;;;;12.30;2.23;;;;;12.40;102120.00;;;;10440583;28;20719;-77
2023/10/04 02:10:44;;;;;;;10.37;2.60;;;;;12.30;102114.00;;;;10472794;28;20198;-80
2023/10/04 02:15:53;;;;;;;10.43;2.80;;;;;12.30;102108.00;;;;10472404;28;20213;-79
2023/10/04 02:20:55;;;;;;;13.77;3.27;;;;;12.40;102109.00;;;;10465868;28;20214;-78
2023/10/04 02:25:58;;;;;;;10.70;2.50;;;;;12.40;102106.00;;;;10469283;28;20270;-78
2023/10/04 02:31:02;;;;;;;12.60;3.33;;;;;12.40;102099.00;;;;10458598;28;20237;-79
2023/10/04 02:36:07;;;;;;;11.73;2.70;;;;;12.50;102108.00;;;;10472926;28;20240;-77
2023/10/04 02:41:10;;;;;;;13.07;2.50;;;;;12.50;102113.00;;;;10488006;28;20582;-80
2023/10/04 02:46:12;;;;;;;10.10;2.87;;;;;12.40;102130.00;;;;10456476;28;20204;-78
2023/10/04 02:51:14;;;;;;;10.13;2.70;;;;;12.30;102125.00;;;;10487376;28;20201;-81
2023/10/04 02:56:17;;;;;;;10.67;2.90;;;;;12.30;102139.00;;;;10476545;28;20312;-78
2023/10/04 03:01:24;;;;;;;12.60;3.73;;;;;12.20;102141.00;;;;10464828;28;20201;-79
2023/10/04 03:06:28;;;;;;;9.03;3.50;;;;;12.10;102137.00;;;;10464972;28;20197;-79
2023/10/04 03:11:32;;;;;;;9.03;2.70;;;;;12.00;102142.00;;;;10488721;28;20198;-78
2023/10/04 03:16:34;;;;;;;8.20;1.80;;;;;11.90;102144.00;;;;10463953;28;20231;-78
2023/10/04 03:21:44;;;;;;;8.60;2.70;;;;;11.80;102151.00;;;;10460236;28;20774;-81
2023/10/04 03:26:47;;;;;;;7.20;2.23;;;;;11.80;102145.00;;;;10476565;28;20625;-80
2023/10/04 03:31:51;;;;;;;12.60;2.20;;;;;11.70;102146.00;;;;10481941;28;20220;-79
2023/10/04 03:36:54;;;;;;;9.23;2.77;;;;;11.70;102153.00;;;;10470832;28;20661;-81
2023/10/04 03:41:57;;;;;;;12.90;2.90;;;;;11.60;102153.00;;;;10474466;28;20961;-78
2023/10/04 03:46:59;;;;;;;7.53;2.73;;;;;11.50;102147.00;;;;10464331;28;20209;-78
2023/10/04 03:52:01;;;;;;;9.23;2.90;;;;;11.50;102133.00;;;;10475760;28;20717;-78
2023/10/04 03:57:06;;;;;;;13.67;3.33;;;;;11.40;102133.00;;;;10451918;28;20618;-78
2023/10/04 04:02:11;;;;;;;11.93;3.10;;;;;11.40;102142.00;;;;10458816;28;20206;-79
2023/10/04 04:07:13;;;;;;;11.37;2.57;;;;;11.40;102131.00;;;;10456043;28;20212;-77
2023/10/04 04:12:17;;;;;;;8.33;2.53;;;;;11.40;102125.00;;;;10459411;28;20217;-77
2023/10/04 04:17:22;;;;;;;11.63;4.10;;;;;11.40;102130.00;;;;10468592;28;20213;-78
2023/10/04 04:22:28;;;;;;;11.53;3.30;;;;;11.40;102136.00;;;;10449088;28;20197;-78
2023/10/04 04:27:30;;;;;;;12.13;2.77;;;;;11.30;102141.00;;;;10437037;28;20536;-79
2023/10/04 04:32:33;;;;;;;14.70;3.20;;;;;11.30;102122.00;;;;10494398;28;20782;-79
2023/10/04 04:37:36;;;;;;;10.27;2.77;;;;;11.30;102127.00;;;;10472682;28;20210;-82
2023/10/04 04:42:47;;;;;;;12.37;3.03;;;;;11.30;102129.00;;;;10456253;28;20213;-80
2023/10/04 04:47:49;;;;;;;10.53;3.00;;;;;11.30;102118.00;;;;10469848;28;20300;-81
2023/10/04 04:52:52;;;;;;;16.40;3.40;;;;;11.40;102137.00;;;;10436651;28;20277;-81
2023/10/04 04:57:56;;;;;;;14.17;3.70;;;;;11.40;102141.00;;;;10459573;28;20221;-82
2023/10/04 05:03:00;;;;;;;14.47;3.10;;;;;11.40;102144.00;;;;10450266;28;20220;-82
2023/10/04 05:08:04;;;;;;;14.00;2.93;;;;;11.30;102143.00;;;;10471236;28;20570;-81
2023/10/04 05:13:13;;;;;;;14.80;3.20;;;;;11.30;102152.00;;;;10439447;28;20297;-78
2023/10/04 05:18:17;;;;;;;9.43;2.73;;;;;11.30;102148.00;;;;10452765;28;20224;-80
2023/10/04 05:23:22;;;;;;;7.47;2.90;;;;;11.30;102154.00;;;;10477644;28;20213;-80
2023/10/04 05:28:24;;;;;;;12.37;3.67;;;;;11.20;102142.00;;;;10464009;28;20270;-78
2023/10/04 05:33:26;;;;;;;9.17;2.40;;;;;11.20;102149.00;;;;10480577;28;20193;-81
2023/10/04 05:38:28;;;;;;;14.23;2.90;;;;;11.20;102134.00;;;;10441254;28;20809;-80
2023/10/04 05:43:34;;;;;;;11.27;3.23;;;;;11.20;102143.00;;;;10450349;28;20206;-79
2023/10/04 05:48:36;;;;;;;16.73;3.50;;;;;11.20;102143.00;;;;10479085;28;20217;-77
2023/10/04 05:53:38;;;;;;;13.70;3.30;;;;;11.20;102144.00;;;;10490748;28;20282;-78
2023/10/04 05:58:40;;;;;;;15.83;3.13;;;;;11.20;102154.00;;;;10473032;28;20220;-78
2023/10/04 06:03:42;;;;;;;11.83;3.20;;;;;11.20;102149.00;;;;10473996;28;20202;-78
2023/10/04 06:08:45;;;;;;;17.93;4.53;;;;;11.30;102153.00;;;;10471599;28;20676;-80
2023/10/04 06:13:48;;;;;;;16.97;4.03;;;;;11.40;102166.00;;;;10486591;28;20213;-79
2023/10/04 06:18:51;;;;;;;26.37;4.17;;;;;11.40;102164.00;;;;10452581;28;20731;-81
2023/10/04 06:23:53;;;;;;;11.40;3.20;;;;;11.50;102162.00;;;;10468948;28;20276;-78
2023/10/04 06:28:55;;;;;;;13.87;3.83;;;;;11.70;102174.00;;;;10461979;28;20902;-77
2023/10/04 06:33:58;;;;;;;14.20;3.27;;;;;11.80;102179.00;;;;10465908;28;20264;-77
2023/10/04 06:39:01;;;;;;;14.17;3.50;;;;;12.00;102197.00;;;;10455332;28;20245;-78
2023/10/04 06:44:03;;;;;;;12.43;3.30;;;;;12.10;102195.00;;;;10455489;28;20320;-80
2023/10/04 06:49:05;;;;;;;12.13;3.47;;;;;12.30;102200.00;;;;10474786;28;20221;-80
2023/10/04 06:54:09;;;;;;;16.97;4.17;;;;;12.50;102215.00;;;;10478212;28;20261;-83
2023/10/04 06:59:12;;;;;;;15.20;3.93;;;;;12.60;102209.00;;;;10469414;28;20205;-84
2023/10/04 07:04:14;;;;;;;17.97;3.37;;;;;12.80;102210.00;;;;10470906;28;20205;-83
2023/10/04 07:09:17;;;;;;;15.40;3.57;;;;;13.00;102214.00;;;;10442836;28;20221;-82
2023/10/04 07:14:19;;;;;;;15.70;3.63;;;;;13.10;102215.00;;;;10445053;28;20304;-81
2023/10/04 07:19:22;;;;;;;17.00;3.83;;;;;13.30;102223.00;;;;10458417;28;20197;-84
2023/10/04 07:24:24;;;;;;;18.97;4.80;;;;;13.50;102221.00;;;;10477091;28;21061;-83
2023/10/04 07:29:26;;;;;;;13.03;3.70;;;;;13.70;102217.00;;;;10460604;28;20222;-82
2023/10/04 07:34:29;;;;;;;16.23;3.47;;;;;13.90;102230.00;;;;10475243;28;21739;-80
2023/10/04 07:39:32;;;;;;;14.97;3.80;;;;;14.10;102235.00;;;;10478317;28;20213;-82
2023/10/04 07:44:34;;;;;;;11.37;3.93;;;;;14.30;102229.00;;;;10432363;28;20195;-83
2023/10/04 07:49:36;;;;;;;18.30;3.70;;;;;14.50;102241.00;;;;10468580;28;20222;-81
2023/10/04 07:54:38;;;;;;;14.38;3.53;;;;;14.80;102249.00;;;;10472491;28;21090;-86
2023/10/04 07:59:41;;;;;;;18.52;4.25;;;;;15.00;102249.00;;;;10489118;28;20196;-85
2023/10/04 08:04:45;;;;;;;14.15;3.95;;;;;15.20;102245.00;;;;10477684;28;20625;-84
2023/10/04 08:09:47;;;;;;;12.40;3.90;;;;;15.40;102240.00;;;;10490296;28;21018;-82
2023/10/04 08:14:50;;;;;;;16.67;4.05;;;;;15.60;102257.00;;;;10454840;28;20300;-80
2023/10/04 08:19:58;;;;;;;12.95;3.30;;;;;15.80;102253.00;;;;10463229;28;20194;-81
2023/10/04 08:25:01;;;;;;;12.35;4.10;;;;;15.80;102257.00;;;;10470496;28;20288;-81
2023/10/04 08:30:07;;;;;;;12.65;3.67;;;;;16.20;102252.00;;;;10473927;28;20214;-81
2023/10/04 08:35:27;;;;;;;13.50;3.70;;;;;16.60;102257.00;;;;10465125;28;20223;-79
2023/10/04 08:40:30;;;;;;;10.43;3.20;;;;;17.20;102264.00;;;;10458093;28;20221;-81
2023/10/04 08:45:35;;;;;;;14.57;4.03;;;;;17.50;102257.00;;;;10470433;28;20314;-80
2023/10/04 08:50:51;;;;;;;12.57;3.92;;;;;17.80;102262.00;;;;10469156;28;20200;-80
2023/10/04 08:55:59;;;;;;;10.15;3.35;;;;;18.00;102262.00;;;;10489654;28;20216;-79
2023/10/04 09:01:04;;;;;;;9.63;3.78;;;;;18.10;102258.00;;;;10468518;28;20954;-79
2023/10/04 09:06:11;;;;;;;13.57;4.18;;;;;18.10;102253.00;;;;10487426;28;20316;-79
2023/10/04 09:11:15;;;;;;;11.90;4.07;;;;;18.20;102249.00;;;;10484750;28;20571;-79
2023/10/04 09:16:22;;;;;;;15.57;4.45;;;;;18.40;102255.00;;;;10457204;28;20828;-80
2023/10/04 09:21:25;;;;;;;10.80;3.63;;;;;18.70;102249.00;;;;10484875;28;20201;-79
2023/10/04 09:26:27;;;;;;;11.65;3.80;;;;;18.90;102248.00;;;;10472664;28;20301;-79
2023/10/04 09:31:29;;;;;;;14.07;4.82;;;;;18.80;102260.00;;;;10468117;28;20193;-79
2023/10/04 09:36:34;;;;;;;15.45;4.35;;;;;18.80;102262.00;;;;10471766;28;20209;-80
2023/10/04 09:41:47;;;;;;;14.30;4.15;;;;;18.80;102247.00;;;;10474497;28;20548;-83
2023/10/04 09:46:54;;;;;;;12.27;4.07;;;;;18.80;102257.00;;;;10483665;28;20209;-82
2023/10/04 09:51:56;;;;;;;15.63;4.70;;;;;18.70;102249.00;;;;10454827;28;20256;-83
2023/10/04 09:56:59;;;;;;;13.00;4.35;;;;;18.90;102249.00;;;;10451443;28;20216;-83
2023/10/04 10:02:02;;;;;;;9.00;3.80;;;;;19.20;102251.00;;;;10467804;28;20207;-82
2023/10/04 10:07:20;;;;;;;9.20;3.53;;;;;19.40;102254.00;;;;10469585;28;20222;-81
2023/10/04 10:12:22;;;;;;;13.90;4.15;;;;;19.60;102269.00;;;;10467381;28;20735;-81
2023/10/04 10:17:24;;;;;;;14.75;4.25;;;;;20.00;102258.00;;;;10458967;28;20213;-80
2023/10/04 10:22:27;;;;;;;9.43;4.15;;;;;20.20;102248.00;;;;10475615;28;20861;-75
2023/10/04 10:27:29;;;;;;;9.80;4.13;;;;;20.40;102242.00;;;;10453919;28;20236;-74
2023/10/04 10:32:32;;;;;;;10.40;3.95;;;;;20.90;102242.00;;;;10442792;28;20301;-77
2023/10/04 10:37:38;;;;;;;14.57;4.22;;;;;21.00;102248.00;;;;10488623;28;20196;-74
2023/10/04 10:43:06;;;;;;;9.27;3.28;;;;;20.90;102239.00;;;;10468984;28;20213;-77
2023/10/04 10:48:10;;;;;;;11.07;3.50;;;;;20.90;102242.00;;;;10484764;28;20763;-76
2023/10/04 10:53:13;;;;;;;12.10;3.50;;;;;20.80;102252.00;;;;10457688;28;20186;-76
2023/10/04 10:58:15;;;;;;;15.35;3.50;;;;;20.60;102251.00;;;;10463140;28;20201;-74
2023/10/04 11:03:18;;;;;;;13.50;3.53;;;;;20.50;102245.00;;;;10460209;28;20185;-76
2023/10/04 11:08:20;;;;;;;9.30;3.58;;;;;20.40;102232.00;;;;10490824;28;20205;-75
2023/10/04 11:13:24;;;;;;;13.35;4.22;;;;;20.40;102239.00;;;;10450035;28;20256;-78
2023/10/04 11:18:28;;;;;;;12.98;4.20;;;;;20.30;102238.00;;;;10472735;28;20281;-79
2023/10/04 11:23:30;;;;;;;11.38;3.65;;;;;20.60;102231.00;;;;10477827;28;20216;-76
2023/10/04 11:28:32;;;;;;;11.63;3.75;;;;;20.80;102226.00;;;;10470314;28;20226;-76
2023/10/04 11:33:50;;;;;;;14.48;4.07;;;;;20.90;102224.00;;;;10489927;28;20809;-83
2023/10/04 11:38:53;;;;;;;10.50;4.10;;;;;21.00;102216.00;;;;10485864;28;20197;-84
2023/10/04 11:44:02;;;;;;;12.13;3.70;;;;;21.10;102210.00;;;;10454501;28;20248;-82
2023/10/04 11:49:11;;;;;;;11.63;3.47;;;;;21.10;102216.00;;;;10474828;28;20225;-82
2023/10/04 11:54:14;;;;;;;10.65;3.72;;;;;21.00;102198.00;;;;10493299;28;20198;-82
2023/10/04 11:59:27;;;;;;;9.95;3.05;;;;;21.50;102189.00;;;;10493637;28;20204;-83
2023/10/04 12:04:32;;;;;;;8.98;3.08;;;;;21.60;102189.00;;;;10450902;28;20201;-82
2023/10/04 12:09:36;;;;;;;10.70;3.03;;;;;21.60;102187.00;;;;10490211;28;20278;-83
2023/10/04 12:14:38;;;;;;;7.53;2.70;;;;;21.50;102189.00;;;;10489830;28;20229;-84
2023/10/04 12:19:40;;;;;;;9.50;2.92;;;;;21.30;102182.00;;;;10473466;28;20237;-83
2023/10/04 12:24:44;;;;;;;17.17;3.65;;;;;21.30;102181.00;;;;10478500;28;20218;-83
2023/10/04 12:29:49;;;;;;;8.68;3.17;;;;;21.30;102169.00;;;;10452349;28;20212;-81
2023/10/04 12:34:51;;;;;;;10.85;3.35;;;;;21.20;102178.00;;;;10464801;28;20206;-83
2023/10/04 12:39:53;;;;;;;10.35;3.35;;;;;20.90;102171.00;;;;10449767;28;20263;-81
2023/10/04 12:44:58;;;;;;;10.57;3.15;;;;;20.80;102169.00;;;;10427479;28;20210;-80
2023/10/04 12:50:03;;;;;;;12.25;3.40;;;;;20.80;102159.00;;;;10486228;28;20202;-81
2023/10/04 12:55:06;;;;;;;11.88;3.58;;;;;21.30;102146.00;;;;10463639;28;20198;-81
2023/10/04 13:00:18;;;;;;;8.98;3.75;;;;;21.20;102155.00;;;;10454600;28;20441;-81
2023/10/04 13:05:20;;;;;;;12.18;3.03;;;;;20.80;102161.00;;;;10461129;28;20213;-82
2023/10/04 13:10:23;;;;;;;8.77;2.80;;;;;20.20;102156.00;;;;10460171;28;20255;-81
2023/10/04 13:15:25;;;;;;;12.82;3.05;;;;;20.10;102146.00;;;;10448776;28;20210;-82
2023/10/04 13:20:28;;;;;;;11.13;2.95;;;;;20.00;102156.00;;;;10462665;28;20225;-82
2023/10/04 13:25:32;;;;;;;8.18;2.83;;;;;20.10;102146.00;;;;10450972;28;20197;-84
2023/10/04 13:30:34;;;;;;;9.32;2.50;;;;;19.90;102140.00;;;;10446956;28;20839;-82
2023/10/04 13:35:36;;;;;;;17.33;2.95;;;;;19.50;102143.00;;;;10420886;28;20743;-81
2023/10/04 13:40:38;;;;;;;9.05;2.70;;;;;19.10;102136.00;;;;10423526;28;20210;-82
2023/10/04 13:45:40;;;;;;;10.15;2.38;;;;;19.10;102132.00;;;;10468353;28;20189;-81
2023/10/04 13:50:42;;;;;;;12.02;3.30;;;;;19.00;102121.00;;;;10453786;28;20247;-81
2023/10/04 13:55:46;;;;;;;10.93;2.97;;;;;18.70;102122.00;;;;10466484;28;20182;-80
2023/10/04 14:00:53;;;;;;;10.27;3.78;;;;;18.90;102120.00;;;;10443036;28;20197;-78
2023/10/04 14:06:06;;;;;;;11.77;2.97;;;;;19.30;102118.00;;;;10453425;28;20198;-79
2023/10/04 14:11:08;;;;;;;11.60;3.47;;;;;19.50;102107.00;;;;10380857;28;20213;-79
2023/10/04 14:16:10;;;;;;;9.60;3.38;;;;;19.40;102095.00;;;;10414349;28;20801;-79
2023/10/04 14:21:13;;;;;;;8.90;3.65;;;;;19.20;102103.00;;;;10463718;28;20274;-80
2023/10/04 14:26:15;;;;;;;12.68;3.10;;;;;19.40;102081.00;;;;10453648;28;20280;-80
2023/10/04 14:31:21;;;;;;;11.27;2.78;;;;;19.90;102078.00;;;;10442676;28;20258;-79
2023/10/04 14:36:23;;;;;;;5.85;2.78;;;;;20.20;102062.00;;;;10462956;28;22464;-79
2023/10/04 14:41:25;;;;;;;9.73;2.42;;;;;20.10;102059.00;;;;10447948;28;20749;-79
2023/10/04 14:46:27;;;;;;;10.45;3.10;;;;;19.90;102059.00;;;;10463781;28;20277;-80
2023/10/04 14:51:30;;;;;;;11.38;2.45;;;;;19.50;102063.00;;;;10448475;28;20239;-80
2023/10/04 14:56:32;;;;;;;10.70;3.20;;;;;19.50;102057.00;;;;10438742;28;20441;-78
2023/10/04 15:01:35;;;;;;;10.05;3.00;;;;;19.60;102057.00;;;;10464481;28;20186;-82
2023/10/04 15:06:37;;;;;;;6.88;2.28;;;;;19.60;102040.00;;;;10442194;28;20319;-82
2023/10/04 15:11:39;;;;;;;7.53;2.63;;;;;19.40;102032.00;;;;10437374;28;20209;-82
2023/10/04 15:16:41;;;;;;;8.48;2.55;;;;;19.30;102042.00;;;;10450303;28;20994;-83
2023/10/04 15:21:43;;;;;;;12.13;2.85;;;;;19.50;102047.00;;;;10448587;28;20237;-82
2023/10/04 15:26:47;;;;;;;9.48;3.17;;;;;19.70;102036.00;;;;10477373;28;20198;-83
2023/10/04 15:31:49;;;;;;;8.43;2.38;;;;;19.80;102027.00;;;;10434612;28;20255;-82
2023/10/04 15:36:51;;;;;;;8.48;2.65;;;;;19.30;102027.00;;;;10433150;28;20227;-83
2023/10/04 15:41:55;;;;;;;8.80;2.63;;;;;19.10;102030.00;;;;10451627;28;20209;-83
2023/10/04 15:46:58;;;;;;;9.05;2.60;;;;;19.00;102036.00;;;;10442452;28;20599;-82
2023/10/04 15:52:01;;;;;;;9.55;2.55;;;;;18.80;102031.00;;;;10471130;28;20228;-81
2023/10/04 15:57:03;;;;;;;6.50;2.40;;;;;18.70;102028.00;;;;10453637;28;20252;-81
2023/10/04 16:02:08;;;;;;;9.65;3.10;;;;;18.80;102016.00;;;;10438907;28;20206;-81
2023/10/04 16:07:10;;;;;;;9.50;2.40;;;;;18.70;102022.00;;;;10437307;28;20202;-85
2023/10/04 16:12:12;;;;;;;9.07;2.55;;;;;18.50;102022.00;;;;10440182;28;20216;-80
2023/10/04 16:17:14;;;;;;;9.48;2.90;;;;;18.30;102027.00;;;;10431086;28;20256;-79
2023/10/04 16:22:16;;;;;;;9.88;2.63;;;;;18.20;102023.00;;;;10443902;28;20217;-80
2023/10/04 16:27:18;;;;;;;8.90;2.58;;;;;18.10;102028.00;;;;10463108;28;20182;-79
2023/10/04 16:32:25;;;;;;;7.30;2.70;;;;;18.00;102039.00;;;;10446488;28;20217;-78
2023/10/04 16:37:30;;;;;;;9.40;2.33;;;;;17.90;102039.00;;;;10457865;28;20202;-81
2023/10/04 16:42:34;;;;;;;8.50;2.42;;;;;17.60;102040.00;;;;10429899;28;20205;-77
2023/10/04 16:47:36;;;;;;;8.30;2.60;;;;;17.30;102049.00;;;;10456798;28;20189;-82
2023/10/04 16:52:38;;;;;;;10.48;2.78;;;;;17.00;102041.00;;;;10460406;28;20189;-80
2023/10/04 16:57:41;;;;;;;9.98;2.67;;;;;16.60;102046.00;;;;10443360;28;20308;-78
2023/10/04 17:02:43;;;;;;;9.38;2.25;;;;;16.40;102049.00;;;;10445280;28;20193;-79
2023/10/04 17:07:45;;;;;;;11.73;3.00;;;;;16.20;102052.00;;;;10435244;28;20184;-79
2023/10/04 17:12:47;;;;;;;13.63;3.28;;;;;16.10;102058.00;;;;10459668;28;20189;-82
2023/10/04 17:17:49;;;;;;;11.65;2.90;;;;;15.90;102064.00;;;;10445657;28;20256;-79
2023/10/04 18:30:57;;;;;;;11.82;3.15;;;;;14.70;102081.00;;;;11247479;24;20238;-77
2023/10/04 18:36:00;;;;;;;13.50;2.83;;;;;14.80;102091.00;;;;9988744;29;20220;-78
2023/10/04 18:41:02;;;;;;;14.60;2.95;;;;;14.90;102088.00;;;;10008034;29;20229;-80
2023/10/04 18:46:04;;;;;;;8.48;2.53;;;;;14.90;102075.00;;;;9989438;29;20255;-79
2023/10/04 18:51:06;;;;;;;10.65;3.53;;;;;14.90;102083.00;;;;9982122;29;20233;-78
2023/10/04 18:56:09;;;;;;;13.35;3.30;;;;;14.90;102088.00;;;;9965364;29;20218;-77
2023/10/04 19:01:11;;;;;;;8.70;2.22;;;;;14.90;102076.00;;;;9975462;29;20956;-78
2023/10/04 19:06:13;;;;;;;7.40;2.72;;;;;14.90;102080.00;;;;9956327;29;20277;-79
2023/10/04 19:11:20;;;;;;;6.20;2.47;;;;;14.80;102072.00;;;;9993551;29;20238;-75
2023/10/04 19:16:24;;;;;;;8.70;2.53;;;;;14.80;102083.00;;;;9975418;29;20213;-75
2023/10/04 19:21:26;;;;;;;10.68;2.90;;;;;14.80;102088.00;;;;9988737;29;20211;-77
2023/10/04 19:26:29;;;;;;;8.90;2.40;;;;;14.70;102081.00;;;;9998569;29;20205;-77
2023/10/04 19:31:31;;;;;;;8.93;3.00;;;;;14.70;102092.00;;;;9962847;29;20297;-76
2023/10/04 19:36:33;;;;;;;10.50;2.80;;;;;14.80;102090.00;;;;9991490;29;20864;-81
2023/10/04 20:49:10;;;;;;;13.43;3.22;;;;;13.60;102071.00;;;;11498839;24;20278;31
2023/10/04 20:54:12;;;;;;;12.80;4.35;;;;;13.70;102068.00;;;;9894148;29;20228;-88
2023/10/04 20:59:14;;;;;;;13.30;3.70;;;;;13.70;102077.00;;;;9882202;29;20227;-87
2023/10/04 21:04:17;;;;;;;9.10;3.43;;;;;13.70;102085.00;;;;9921712;29;20213;-86
2023/10/04 21:09:22;;;;;;;8.45;3.13;;;;;13.70;102072.00;;;;9893437;29;20232;-86
2023/10/04 21:14:25;;;;;;;8.63;2.65;;;;;13.80;102065.00;;;;9907722;29;20265;-86
2023/10/04 21:19:31;;;;;;;10.90;3.23;;;;;13.70;102063.00;;;;9905794;29;20212;-86
2023/10/04 21:24:33;;;;;;;12.98;3.58;;;;;13.60;102058.00;;;;9922731;29;20544;-88
2023/10/04 21:29:37;;;;;;;13.75;3.03;;;;;13.60;102050.00;;;;9882490;29;20212;-88
2023/10/04 21:34:39;;;;;;;10.13;2.63;;;;;13.60;102053.00;;;;9882277;29;20212;-87
2023/10/04 21:39:46;;;;;;;6.83;2.73;;;;;13.50;102051.00;;;;9915589;29;20307;-86
2023/10/04 21:44:49;;;;;;;8.57;2.58;;;;;13.50;102031.00;;;;9899398;29;20245;-88
2023/10/04 21:49:51;;;;;;;7.05;2.47;;;;;13.50;102032.00;;;;9867472;29;20465;-87
2023/10/04 21:54:54;;;;;;;11.87;2.57;;;;;13.50;102038.00;;;;9891184;29;20215;-88
2023/10/04 21:59:56;;;;;;;5.47;2.47;;;;;13.50;102022.00;;;;9931759;29;20271;-78
2023/10/04 22:04:59;;;;;;;8.90;2.97;;;;;13.50;102024.00;;;;9913832;29;20353;-80
2023/10/04 22:10:02;;;;;;;11.37;3.10;;;;;13.60;102020.00;;;;9907330;29;20226;-80
2023/10/04 22:15:07;;;;;;;7.47;2.78;;;;;13.60;102010.00;;;;9898148;29;20211;-79
2023/10/04 22:20:13;;;;;;;11.40;3.05;;;;;13.60;101999.00;;;;9911270;29;20307;-79
2023/10/04 22:25:18;;;;;;;6.97;2.53;;;;;13.70;101997.00;;;;9889235;29;20211;-79
2023/10/04 22:30:22;;;;;;;6.95;2.30;;;;;13.70;101979.00;;;;9910159;29;20222;-79
2023/10/04 22:35:24;;;;;;;7.38;2.60;;;;;13.70;101979.00;;;;9907282;29;20199;-79
2023/10/04 22:40:27;;;;;;;5.43;2.17;;;;;13.80;101974.00;;;;9887310;29;20334;-78
2023/10/04 22:45:29;;;;;;;8.93;2.28;;;;;13.80;101958.00;;;;9906445;29;20523;-79
2023/10/04 22:50:31;;;;;;;9.43;2.47;;;;;13.80;101955.00;;;;9883781;29;20207;-79
2023/10/04 22:55:35;;;;;;;10.03;2.13;;;;;13.80;101956.00;;;;9918594;29;20214;-78
2023/10/04 23:00:38;;;;;;;6.80;2.20;;;;;13.80;101948.00;;;;9895348;29;20300;-80
2023/10/04 23:05:42;;;;;;;4.47;1.77;;;;;13.80;101946.00;;;;9914337;29;20290;-79
2023/10/04 23:10:47;;;;;;;8.82;1.77;;;;;13.70;101928.00;;;;9901862;29;20763;-80
2023/10/04 23:15:49;;;;;;;6.70;1.83;;;;;13.70;101929.00;;;;9900346;29;20890;-79
2023/10/04 23:21:03;;;;;;;10.77;2.07;;;;;13.70;101927.00;;;;9928396;29;20215;-80
2023/10/04 23:26:05;;;;;;;7.47;2.50;;;;;13.70;101922.00;;;;9901479;29;20264;-80
2023/10/04 23:31:07;;;;;;;4.30;1.95;;;;;13.70;101918.00;;;;9880912;29;20269;-80
2023/10/04 23:36:18;;;;;;;8.45;2.30;;;;;13.60;101922.00;;;;9910518;29;20271;-80
2023/10/04 23:41:32;;;;;;;11.02;3.15;;;;;13.60;101912.00;;;;9905549;29;20218;-79
2023/10/04 23:46:36;;;;;;;8.87;2.30;;;;;13.50;101905.00;;;;9889919;29;20218;-80
2023/10/04 23:51:43;;;;;;;10.10;2.30;;;;;13.50;101910.00;;;;9899130;29;20303;-80
